sensor_id;sensor_type;location;lat;lon;timestamp;P1;durP1;ratioP1;P2;durP2;ratioP2
76336;SDS011;65157;50.082;18.178;2023-04-06T00:02:13;25.40;;;12.10;;
76336;SDS011;65157;50.082;18.178;2023-04-06T00:04:40;26.10;;;12.10;;
76336;SDS011;65157;50.082;18.178;2023-04-06T00:07:06;23.30;;;12.10;;
76336;SDS011;65157;50.082;18.178;2023-04-06T00:09:33;29.30;;;12.90;;
76336;SDS011;65157;50.082;18.178;2023-04-06T00:12:00;27.50;;;12.90;;
76336;SDS011;65157;50.082;18.178;2023-04-06T00:14:26;28.00;;;13.50;;
76336;SDS011;65157;50.082;18.178;2023-04-06T00:16:53;32.70;;;15.90;;
76336;SDS011;65157;50.082;18.178;2023-04-06T00:19:20;32.30;;;14.90;;
76336;SDS011;65157;50.082;18.178;2023-04-06T00:21:47;27.80;;;14.30;;
76336;SDS011;65157;50.082;18.178;2023-04-06T00:24:14;32.00;;;14.40;;
76336;SDS011;65157;50.082;18.178;2023-04-06T00:26:43;29.20;;;14.10;;
76336;SDS011;65157;50.082;18.178;2023-04-06T00:29:09;27.80;;;14.70;;
76336;SDS011;65157;50.082;18.178;2023-04-06T00:34:07;36.60;;;17.10;;
76336;SDS011;65157;50.082;18.178;2023-04-06T00:36:33;35.10;;;16.30;;
76336;SDS011;65157;50.082;18.178;2023-04-06T00:39:00;35.70;;;16.40;;
76336;SDS011;65157;50.082;18.178;2023-04-06T00:41:28;36.90;;;16.90;;
76336;SDS011;65157;50.082;18.178;2023-04-06T00:43:56;36.50;;;18.50;;
76336;SDS011;65157;50.082;18.178;2023-04-06T00:46:23;38.40;;;18.40;;
76336;SDS011;65157;50.082;18.178;2023-04-06T00:48:50;43.00;;;19.80;;
76336;SDS011;65157;50.082;18.178;2023-04-06T00:51:17;42.30;;;19.00;;
76336;SDS011;65157;50.082;18.178;2023-04-06T00:53:44;43.40;;;18.40;;
76336;SDS011;65157;50.082;18.178;2023-04-06T00:56:11;40.70;;;18.50;;
76336;SDS011;65157;50.082;18.178;2023-04-06T00:58:40;45.20;;;18.60;;
76336;SDS011;65157;50.082;18.178;2023-04-06T01:01:08;46.50;;;19.00;;
76336;SDS011;65157;50.082;18.178;2023-04-06T01:03:35;47.60;;;19.50;;
76336;SDS011;65157;50.082;18.178;2023-04-06T01:06:02;47.90;;;18.90;;
76336;SDS011;65157;50.082;18.178;2023-04-06T01:08:29;47.00;;;19.40;;
76336;SDS011;65157;50.082;18.178;2023-04-06T01:10:55;48.50;;;22.20;;
76336;SDS011;65157;50.082;18.178;2023-04-06T01:13:22;52.90;;;21.20;;
76336;SDS011;65157;50.082;18.178;2023-04-06T01:15:49;49.00;;;21.70;;
76336;SDS011;65157;50.082;18.178;2023-04-06T01:18:16;51.80;;;23.20;;
76336;SDS011;65157;50.082;18.178;2023-04-06T01:20:43;60.30;;;25.30;;
76336;SDS011;65157;50.082;18.178;2023-04-06T01:23:10;58.20;;;24.80;;
76336;SDS011;65157;50.082;18.178;2023-04-06T01:25:37;64.40;;;26.10;;
76336;SDS011;65157;50.082;18.178;2023-04-06T01:28:07;61.20;;;26.30;;
76336;SDS011;65157;50.082;18.178;2023-04-06T01:30:34;69.30;;;26.40;;
76336;SDS011;65157;50.082;18.178;2023-04-06T01:33:00;60.40;;;24.20;;
76336;SDS011;65157;50.082;18.178;2023-04-06T01:35:27;60.00;;;24.80;;
76336;SDS011;65157;50.082;18.178;2023-04-06T01:37:58;61.50;;;25.10;;
76336;SDS011;65157;50.082;18.178;2023-04-06T01:40:29;60.50;;;24.80;;
76336;SDS011;65157;50.082;18.178;2023-04-06T01:42:55;69.60;;;26.60;;
76336;SDS011;65157;50.082;18.178;2023-04-06T01:45:25;61.30;;;24.40;;
76336;SDS011;65157;50.082;18.178;2023-04-06T01:47:52;64.50;;;26.40;;
76336;SDS011;65157;50.082;18.178;2023-04-06T01:50:19;69.50;;;25.70;;
76336;SDS011;65157;50.082;18.178;2023-04-06T01:52:46;64.80;;;27.80;;
76336;SDS011;65157;50.082;18.178;2023-04-06T01:55:13;64.20;;;26.10;;
76336;SDS011;65157;50.082;18.178;2023-04-06T01:57:40;64.20;;;25.50;;
76336;SDS011;65157;50.082;18.178;2023-04-06T02:00:14;63.80;;;26.00;;
76336;SDS011;65157;50.082;18.178;2023-04-06T02:02:44;62.20;;;25.00;;
76336;SDS011;65157;50.082;18.178;2023-04-06T02:05:11;65.70;;;26.50;;
76336;SDS011;65157;50.082;18.178;2023-04-06T02:07:41;63.70;;;24.40;;
76336;SDS011;65157;50.082;18.178;2023-04-06T02:10:12;68.20;;;25.70;;
76336;SDS011;65157;50.082;18.178;2023-04-06T02:12:43;66.60;;;25.30;;
76336;SDS011;65157;50.082;18.178;2023-04-06T02:15:10;56.40;;;24.30;;
76336;SDS011;65157;50.082;18.178;2023-04-06T02:17:37;59.60;;;28.30;;
76336;SDS011;65157;50.082;18.178;2023-04-06T02:20:04;65.30;;;28.10;;
76336;SDS011;65157;50.082;18.178;2023-04-06T02:22:31;67.00;;;27.70;;
76336;SDS011;65157;50.082;18.178;2023-04-06T02:24:58;64.80;;;26.00;;
76336;SDS011;65157;50.082;18.178;2023-04-06T02:27:25;61.60;;;25.70;;
76336;SDS011;65157;50.082;18.178;2023-04-06T02:29:51;59.80;;;26.60;;
76336;SDS011;65157;50.082;18.178;2023-04-06T02:32:18;60.60;;;26.30;;
76336;SDS011;65157;50.082;18.178;2023-04-06T02:34:45;64.70;;;27.40;;
76336;SDS011;65157;50.082;18.178;2023-04-06T02:37:12;60.60;;;24.10;;
76336;SDS011;65157;50.082;18.178;2023-04-06T02:39:39;49.00;;;23.30;;
76336;SDS011;65157;50.082;18.178;2023-04-06T02:42:08;55.40;;;22.70;;
76336;SDS011;65157;50.082;18.178;2023-04-06T02:44:34;54.40;;;23.10;;
76336;SDS011;65157;50.082;18.178;2023-04-06T02:47:01;50.40;;;21.70;;
76336;SDS011;65157;50.082;18.178;2023-04-06T02:49:28;51.30;;;21.60;;
76336;SDS011;65157;50.082;18.178;2023-04-06T02:51:54;49.10;;;21.70;;
76336;SDS011;65157;50.082;18.178;2023-04-06T02:54:21;46.20;;;22.20;;
76336;SDS011;65157;50.082;18.178;2023-04-06T02:56:48;46.30;;;21.00;;
76336;SDS011;65157;50.082;18.178;2023-04-06T02:59:15;49.20;;;21.90;;
76336;SDS011;65157;50.082;18.178;2023-04-06T03:01:41;50.40;;;21.50;;
76336;SDS011;65157;50.082;18.178;2023-04-06T03:04:08;46.30;;;21.60;;
76336;SDS011;65157;50.082;18.178;2023-04-06T03:06:35;40.90;;;20.20;;
76336;SDS011;65157;50.082;18.178;2023-04-06T03:11:29;36.40;;;18.40;;
76336;SDS011;65157;50.082;18.178;2023-04-06T03:13:56;41.60;;;18.60;;
76336;SDS011;65157;50.082;18.178;2023-04-06T03:16:23;36.30;;;16.30;;
76336;SDS011;65157;50.082;18.178;2023-04-06T03:18:50;45.40;;;17.10;;
76336;SDS011;65157;50.082;18.178;2023-04-06T03:21:17;34.50;;;17.00;;
76336;SDS011;65157;50.082;18.178;2023-04-06T03:23:46;41.00;;;18.20;;
76336;SDS011;65157;50.082;18.178;2023-04-06T03:26:13;35.70;;;16.40;;
76336;SDS011;65157;50.082;18.178;2023-04-06T03:28:40;40.50;;;18.00;;
76336;SDS011;65157;50.082;18.178;2023-04-06T03:31:07;38.20;;;16.60;;
76336;SDS011;65157;50.082;18.178;2023-04-06T03:33:34;38.10;;;17.50;;
76336;SDS011;65157;50.082;18.178;2023-04-06T03:36:00;39.80;;;18.10;;
76336;SDS011;65157;50.082;18.178;2023-04-06T03:38:27;37.30;;;15.90;;
76336;SDS011;65157;50.082;18.178;2023-04-06T03:40:54;39.20;;;17.50;;
76336;SDS011;65157;50.082;18.178;2023-04-06T03:43:21;39.60;;;17.10;;
76336;SDS011;65157;50.082;18.178;2023-04-06T03:45:47;37.10;;;16.10;;
76336;SDS011;65157;50.082;18.178;2023-04-06T03:48:14;39.00;;;17.60;;
76336;SDS011;65157;50.082;18.178;2023-04-06T03:50:41;39.20;;;17.50;;
76336;SDS011;65157;50.082;18.178;2023-04-06T03:53:08;37.50;;;17.50;;
76336;SDS011;65157;50.082;18.178;2023-04-06T03:55:34;43.60;;;16.50;;
76336;SDS011;65157;50.082;18.178;2023-04-06T03:58:01;36.70;;;15.80;;
76336;SDS011;65157;50.082;18.178;2023-04-06T04:00:29;38.10;;;16.00;;
76336;SDS011;65157;50.082;18.178;2023-04-06T04:02:56;38.70;;;16.20;;
76336;SDS011;65157;50.082;18.178;2023-04-06T04:05:23;37.10;;;16.80;;
76336;SDS011;65157;50.082;18.178;2023-04-06T04:07:49;39.30;;;17.00;;
76336;SDS011;65157;50.082;18.178;2023-04-06T04:10:16;39.50;;;16.70;;
76336;SDS011;65157;50.082;18.178;2023-04-06T04:12:43;41.70;;;18.80;;
76336;SDS011;65157;50.082;18.178;2023-04-06T04:15:10;42.30;;;18.60;;
76336;SDS011;65157;50.082;18.178;2023-04-06T04:17:37;47.20;;;19.10;;
76336;SDS011;65157;50.082;18.178;2023-04-06T04:20:03;42.70;;;17.40;;
76336;SDS011;65157;50.082;18.178;2023-04-06T04:22:31;44.40;;;17.70;;
76336;SDS011;65157;50.082;18.178;2023-04-06T04:24:58;36.40;;;15.30;;
76336;SDS011;65157;50.082;18.178;2023-04-06T04:27:25;38.40;;;16.10;;
76336;SDS011;65157;50.082;18.178;2023-04-06T04:29:52;41.00;;;16.70;;
76336;SDS011;65157;50.082;18.178;2023-04-06T04:32:18;40.40;;;17.20;;
76336;SDS011;65157;50.082;18.178;2023-04-06T04:34:45;37.80;;;16.20;;
76336;SDS011;65157;50.082;18.178;2023-04-06T04:37:12;41.90;;;18.30;;
76336;SDS011;65157;50.082;18.178;2023-04-06T04:39:39;72.00;;;24.60;;
76336;SDS011;65157;50.082;18.178;2023-04-06T04:42:06;72.40;;;25.10;;
76336;SDS011;65157;50.082;18.178;2023-04-06T04:44:33;64.10;;;21.60;;
76336;SDS011;65157;50.082;18.178;2023-04-06T04:47:02;55.90;;;20.00;;
76336;SDS011;65157;50.082;18.178;2023-04-06T04:49:30;41.70;;;17.70;;
76336;SDS011;65157;50.082;18.178;2023-04-06T04:51:57;40.90;;;17.30;;
76336;SDS011;65157;50.082;18.178;2023-04-06T04:54:24;42.90;;;17.40;;
76336;SDS011;65157;50.082;18.178;2023-04-06T04:56:51;38.70;;;17.20;;
76336;SDS011;65157;50.082;18.178;2023-04-06T04:59:18;44.20;;;17.30;;
76336;SDS011;65157;50.082;18.178;2023-04-06T05:01:44;46.50;;;18.20;;
76336;SDS011;65157;50.082;18.178;2023-04-06T05:04:11;37.00;;;17.20;;
76336;SDS011;65157;50.082;18.178;2023-04-06T05:06:38;42.60;;;17.80;;
76336;SDS011;65157;50.082;18.178;2023-04-06T05:09:05;41.50;;;17.00;;
76336;SDS011;65157;50.082;18.178;2023-04-06T05:11:32;43.60;;;17.80;;
76336;SDS011;65157;50.082;18.178;2023-04-06T05:13:59;41.20;;;16.00;;
76336;SDS011;65157;50.082;18.178;2023-04-06T05:16:29;41.10;;;17.00;;
76336;SDS011;65157;50.082;18.178;2023-04-06T05:18:56;46.60;;;18.60;;
76336;SDS011;65157;50.082;18.178;2023-04-06T05:21:23;54.10;;;20.70;;
76336;SDS011;65157;50.082;18.178;2023-04-06T05:23:50;49.00;;;19.50;;
76336;SDS011;65157;50.082;18.178;2023-04-06T05:26:16;52.50;;;21.50;;
76336;SDS011;65157;50.082;18.178;2023-04-06T05:28:43;56.80;;;20.60;;
76336;SDS011;65157;50.082;18.178;2023-04-06T05:31:16;50.20;;;21.20;;
76336;SDS011;65157;50.082;18.178;2023-04-06T05:33:46;54.20;;;21.20;;
76336;SDS011;65157;50.082;18.178;2023-04-06T05:36:13;51.60;;;20.60;;
76336;SDS011;65157;50.082;18.178;2023-04-06T05:38:46;50.30;;;19.40;;
76336;SDS011;65157;50.082;18.178;2023-04-06T05:41:14;48.80;;;21.40;;
76336;SDS011;65157;50.082;18.178;2023-04-06T05:43:41;49.30;;;21.20;;
76336;SDS011;65157;50.082;18.178;2023-04-06T05:46:08;51.90;;;22.20;;
76336;SDS011;65157;50.082;18.178;2023-04-06T05:48:36;50.30;;;20.70;;
76336;SDS011;65157;50.082;18.178;2023-04-06T05:51:03;58.30;;;22.90;;
76336;SDS011;65157;50.082;18.178;2023-04-06T05:53:30;55.30;;;22.20;;
76336;SDS011;65157;50.082;18.178;2023-04-06T05:56:02;57.40;;;20.70;;
76336;SDS011;65157;50.082;18.178;2023-04-06T05:58:29;59.50;;;22.00;;
76336;SDS011;65157;50.082;18.178;2023-04-06T06:01:00;53.90;;;23.30;;
76336;SDS011;65157;50.082;18.178;2023-04-06T06:03:30;49.00;;;20.50;;
76336;SDS011;65157;50.082;18.178;2023-04-06T06:06:03;60.30;;;22.10;;
76336;SDS011;65157;50.082;18.178;2023-04-06T06:08:31;47.50;;;18.40;;
76336;SDS011;65157;50.082;18.178;2023-04-06T06:10:57;51.90;;;19.00;;
76336;SDS011;65157;50.082;18.178;2023-04-06T06:13:24;46.90;;;19.00;;
76336;SDS011;65157;50.082;18.178;2023-04-06T06:15:54;54.00;;;21.10;;
76336;SDS011;65157;50.082;18.178;2023-04-06T06:18:21;50.50;;;18.70;;
76336;SDS011;65157;50.082;18.178;2023-04-06T06:20:48;44.10;;;17.70;;
76336;SDS011;65157;50.082;18.178;2023-04-06T06:23:15;35.90;;;15.70;;
76336;SDS011;65157;50.082;18.178;2023-04-06T06:25:42;48.30;;;17.80;;
76336;SDS011;65157;50.082;18.178;2023-04-06T06:28:09;30.90;;;14.40;;
76336;SDS011;65157;50.082;18.178;2023-04-06T06:30:39;39.90;;;16.40;;
76336;SDS011;65157;50.082;18.178;2023-04-06T06:33:06;37.30;;;16.70;;
76336;SDS011;65157;50.082;18.178;2023-04-06T06:35:38;39.20;;;16.60;;
76336;SDS011;65157;50.082;18.178;2023-04-06T06:38:06;42.30;;;18.70;;
76336;SDS011;65157;50.082;18.178;2023-04-06T06:40:33;38.90;;;16.70;;
76336;SDS011;65157;50.082;18.178;2023-04-06T06:43:00;42.40;;;17.00;;
76336;SDS011;65157;50.082;18.178;2023-04-06T06:45:27;39.70;;;17.70;;
76336;SDS011;65157;50.082;18.178;2023-04-06T06:47:56;43.50;;;17.30;;
76336;SDS011;65157;50.082;18.178;2023-04-06T06:50:23;42.50;;;16.30;;
76336;SDS011;65157;50.082;18.178;2023-04-06T06:52:50;36.00;;;16.70;;
76336;SDS011;65157;50.082;18.178;2023-04-06T06:55:16;41.20;;;17.50;;
76336;SDS011;65157;50.082;18.178;2023-04-06T06:57:44;42.90;;;17.20;;
76336;SDS011;65157;50.082;18.178;2023-04-06T07:00:12;38.30;;;18.80;;
76336;SDS011;65157;50.082;18.178;2023-04-06T07:02:39;35.60;;;15.20;;
76336;SDS011;65157;50.082;18.178;2023-04-06T07:05:07;40.70;;;17.20;;
76336;SDS011;65157;50.082;18.178;2023-04-06T07:07:34;39.30;;;17.20;;
76336;SDS011;65157;50.082;18.178;2023-04-06T07:10:01;33.20;;;15.40;;
76336;SDS011;65157;50.082;18.178;2023-04-06T07:12:27;32.70;;;15.30;;
76336;SDS011;65157;50.082;18.178;2023-04-06T07:14:54;31.90;;;15.70;;
76336;SDS011;65157;50.082;18.178;2023-04-06T07:17:25;28.10;;;12.90;;
76336;SDS011;65157;50.082;18.178;2023-04-06T07:19:55;36.90;;;16.60;;
76336;SDS011;65157;50.082;18.178;2023-04-06T07:22:21;36.00;;;15.70;;
76336;SDS011;65157;50.082;18.178;2023-04-06T07:24:48;36.30;;;16.00;;
76336;SDS011;65157;50.082;18.178;2023-04-06T07:27:15;33.10;;;15.80;;
76336;SDS011;65157;50.082;18.178;2023-04-06T07:29:45;29.60;;;14.30;;
76336;SDS011;65157;50.082;18.178;2023-04-06T07:32:13;35.30;;;15.80;;
76336;SDS011;65157;50.082;18.178;2023-04-06T07:34:43;34.20;;;15.10;;
76336;SDS011;65157;50.082;18.178;2023-04-06T07:37:10;30.50;;;13.80;;
76336;SDS011;65157;50.082;18.178;2023-04-06T07:39:42;30.50;;;14.20;;
76336;SDS011;65157;50.082;18.178;2023-04-06T07:42:09;29.50;;;14.00;;
76336;SDS011;65157;50.082;18.178;2023-04-06T07:44:36;29.50;;;13.10;;
76336;SDS011;65157;50.082;18.178;2023-04-06T07:47:04;29.60;;;14.40;;
76336;SDS011;65157;50.082;18.178;2023-04-06T07:49:32;26.00;;;14.10;;
76336;SDS011;65157;50.082;18.178;2023-04-06T07:51:59;30.60;;;14.40;;
76336;SDS011;65157;50.082;18.178;2023-04-06T07:54:26;25.70;;;11.00;;
76336;SDS011;65157;50.082;18.178;2023-04-06T07:56:59;28.70;;;13.50;;
76336;SDS011;65157;50.082;18.178;2023-04-06T07:59:34;21.20;;;10.50;;
76336;SDS011;65157;50.082;18.178;2023-04-06T08:02:01;23.50;;;11.80;;
76336;SDS011;65157;50.082;18.178;2023-04-06T08:04:28;20.70;;;10.80;;
76336;SDS011;65157;50.082;18.178;2023-04-06T08:06:57;19.00;;;10.10;;
76336;SDS011;65157;50.082;18.178;2023-04-06T08:09:23;22.10;;;11.00;;
76336;SDS011;65157;50.082;18.178;2023-04-06T08:11:53;17.50;;;8.40;;
76336;SDS011;65157;50.082;18.178;2023-04-06T08:14:30;18.90;;;10.20;;
76336;SDS011;65157;50.082;18.178;2023-04-06T08:16:59;21.30;;;10.30;;
76336;SDS011;65157;50.082;18.178;2023-04-06T08:19:26;18.70;;;11.00;;
76336;SDS011;65157;50.082;18.178;2023-04-06T08:21:53;17.50;;;10.40;;
76336;SDS011;65157;50.082;18.178;2023-04-06T08:24:20;19.60;;;10.60;;
76336;SDS011;65157;50.082;18.178;2023-04-06T08:29:18;17.70;;;9.40;;
76336;SDS011;65157;50.082;18.178;2023-04-06T08:31:48;14.00;;;8.00;;
76336;SDS011;65157;50.082;18.178;2023-04-06T08:34:15;18.70;;;10.10;;
76336;SDS011;65157;50.082;18.178;2023-04-06T08:36:43;16.10;;;8.90;;
76336;SDS011;65157;50.082;18.178;2023-04-06T08:39:09;14.40;;;8.40;;
76336;SDS011;65157;50.082;18.178;2023-04-06T08:41:45;11.30;;;7.30;;
76336;SDS011;65157;50.082;18.178;2023-04-06T08:44:12;10.80;;;6.70;;
76336;SDS011;65157;50.082;18.178;2023-04-06T08:49:09;11.60;;;6.40;;
76336;SDS011;65157;50.082;18.178;2023-04-06T08:51:37;12.50;;;6.80;;
76336;SDS011;65157;50.082;18.178;2023-04-06T08:54:06;13.00;;;7.00;;
76336;SDS011;65157;50.082;18.178;2023-04-06T08:56:33;11.00;;;6.60;;
76336;SDS011;65157;50.082;18.178;2023-04-06T08:59:05;11.10;;;6.10;;
76336;SDS011;65157;50.082;18.178;2023-04-06T09:01:36;11.30;;;6.60;;
76336;SDS011;65157;50.082;18.178;2023-04-06T09:04:07;12.00;;;6.50;;
76336;SDS011;65157;50.082;18.178;2023-04-06T09:06:34;9.60;;;7.10;;
76336;SDS011;65157;50.082;18.178;2023-04-06T09:09:08;12.90;;;6.30;;
76336;SDS011;65157;50.082;18.178;2023-04-06T09:11:48;12.20;;;7.40;;
76336;SDS011;65157;50.082;18.178;2023-04-06T09:14:17;10.90;;;6.70;;
76336;SDS011;65157;50.082;18.178;2023-04-06T09:17:01;12.40;;;7.30;;
76336;SDS011;65157;50.082;18.178;2023-04-06T09:19:27;12.80;;;7.80;;
76336;SDS011;65157;50.082;18.178;2023-04-06T09:22:01;14.90;;;7.20;;
76336;SDS011;65157;50.082;18.178;2023-04-06T09:24:48;13.20;;;7.50;;
76336;SDS011;65157;50.082;18.178;2023-04-06T09:27:32;16.00;;;8.50;;
76336;SDS011;65157;50.082;18.178;2023-04-06T09:30:11;11.20;;;7.60;;
76336;SDS011;65157;50.082;18.178;2023-04-06T09:32:59;11.50;;;7.70;;
76336;SDS011;65157;50.082;18.178;2023-04-06T09:35:26;14.70;;;8.70;;
76336;SDS011;65157;50.082;18.178;2023-04-06T09:38:11;10.70;;;6.80;;
76336;SDS011;65157;50.082;18.178;2023-04-06T09:40:50;12.40;;;7.00;;
76336;SDS011;65157;50.082;18.178;2023-04-06T09:43:29;11.20;;;6.00;;
76336;SDS011;65157;50.082;18.178;2023-04-06T09:46:00;11.90;;;7.40;;
76336;SDS011;65157;50.082;18.178;2023-04-06T09:48:29;9.40;;;6.10;;
76336;SDS011;65157;50.082;18.178;2023-04-06T09:51:00;12.40;;;7.50;;
76336;SDS011;65157;50.082;18.178;2023-04-06T09:53:30;14.50;;;8.50;;
76336;SDS011;65157;50.082;18.178;2023-04-06T09:56:00;11.20;;;6.70;;
76336;SDS011;65157;50.082;18.178;2023-04-06T09:58:32;10.30;;;6.90;;
76336;SDS011;65157;50.082;18.178;2023-04-06T10:01:07;11.80;;;7.30;;
76336;SDS011;65157;50.082;18.178;2023-04-06T10:03:45;8.30;;;5.80;;
76336;SDS011;65157;50.082;18.178;2023-04-06T10:06:21;8.40;;;5.10;;
76336;SDS011;65157;50.082;18.178;2023-04-06T10:08:53;8.20;;;5.90;;
76336;SDS011;65157;50.082;18.178;2023-04-06T10:11:23;7.80;;;5.50;;
76336;SDS011;65157;50.082;18.178;2023-04-06T10:13:50;7.90;;;5.60;;
76336;SDS011;65157;50.082;18.178;2023-04-06T10:16:21;8.40;;;5.30;;
76336;SDS011;65157;50.082;18.178;2023-04-06T10:18:53;9.30;;;5.40;;
76336;SDS011;65157;50.082;18.178;2023-04-06T10:21:26;8.90;;;5.80;;
76336;SDS011;65157;50.082;18.178;2023-04-06T10:23:59;7.50;;;4.60;;
76336;SDS011;65157;50.082;18.178;2023-04-06T10:26:28;8.40;;;5.70;;
76336;SDS011;65157;50.082;18.178;2023-04-06T10:28:54;8.00;;;5.60;;
76336;SDS011;65157;50.082;18.178;2023-04-06T10:31:25;8.70;;;5.90;;
76336;SDS011;65157;50.082;18.178;2023-04-06T10:33:56;8.50;;;6.10;;
76336;SDS011;65157;50.082;18.178;2023-04-06T10:36:28;11.20;;;6.30;;
76336;SDS011;65157;50.082;18.178;2023-04-06T10:39:03;8.80;;;5.80;;
76336;SDS011;65157;50.082;18.178;2023-04-06T10:41:35;9.50;;;6.70;;
76336;SDS011;65157;50.082;18.178;2023-04-06T10:44:23;7.70;;;5.30;;
76336;SDS011;65157;50.082;18.178;2023-04-06T10:46:54;7.40;;;5.00;;
76336;SDS011;65157;50.082;18.178;2023-04-06T10:49:24;7.20;;;4.70;;
76336;SDS011;65157;50.082;18.178;2023-04-06T10:51:58;8.90;;;6.40;;
76336;SDS011;65157;50.082;18.178;2023-04-06T10:54:28;9.30;;;6.80;;
76336;SDS011;65157;50.082;18.178;2023-04-06T10:56:56;10.30;;;6.80;;
76336;SDS011;65157;50.082;18.178;2023-04-06T10:59:23;10.80;;;7.10;;
76336;SDS011;65157;50.082;18.178;2023-04-06T11:01:50;9.60;;;6.80;;
76336;SDS011;65157;50.082;18.178;2023-04-06T11:04:18;8.70;;;5.50;;
76336;SDS011;65157;50.082;18.178;2023-04-06T11:06:49;7.60;;;4.60;;
76336;SDS011;65157;50.082;18.178;2023-04-06T11:09:23;11.40;;;5.20;;
76336;SDS011;65157;50.082;18.178;2023-04-06T11:11:54;8.30;;;6.00;;
76336;SDS011;65157;50.082;18.178;2023-04-06T11:14:22;8.80;;;5.80;;
76336;SDS011;65157;50.082;18.178;2023-04-06T11:16:49;8.00;;;5.70;;
76336;SDS011;65157;50.082;18.178;2023-04-06T11:19:21;7.80;;;5.80;;
76336;SDS011;65157;50.082;18.178;2023-04-06T11:21:48;9.10;;;5.60;;
76336;SDS011;65157;50.082;18.178;2023-04-06T11:24:16;7.80;;;5.30;;
76336;SDS011;65157;50.082;18.178;2023-04-06T11:26:51;9.10;;;5.60;;
76336;SDS011;65157;50.082;18.178;2023-04-06T11:32:03;8.60;;;5.20;;
76336;SDS011;65157;50.082;18.178;2023-04-06T11:34:36;11.80;;;6.60;;
76336;SDS011;65157;50.082;18.178;2023-04-06T11:37:06;7.80;;;5.10;;
76336;SDS011;65157;50.082;18.178;2023-04-06T11:39:39;9.40;;;5.20;;
76336;SDS011;65157;50.082;18.178;2023-04-06T11:42:22;9.30;;;5.20;;
76336;SDS011;65157;50.082;18.178;2023-04-06T11:45:19;7.30;;;5.60;;
76336;SDS011;65157;50.082;18.178;2023-04-06T11:47:54;5.60;;;3.30;;
76336;SDS011;65157;50.082;18.178;2023-04-06T11:50:31;8.30;;;5.50;;
76336;SDS011;65157;50.082;18.178;2023-04-06T11:52:59;8.10;;;5.50;;
76336;SDS011;65157;50.082;18.178;2023-04-06T11:55:40;7.20;;;5.40;;
76336;SDS011;65157;50.082;18.178;2023-04-06T11:58:10;8.30;;;4.80;;
76336;SDS011;65157;50.082;18.178;2023-04-06T12:00:37;7.70;;;4.90;;
76336;SDS011;65157;50.082;18.178;2023-04-06T12:03:04;8.20;;;6.10;;
76336;SDS011;65157;50.082;18.178;2023-04-06T12:05:33;8.70;;;5.70;;
76336;SDS011;65157;50.082;18.178;2023-04-06T12:08:00;7.50;;;5.60;;
76336;SDS011;65157;50.082;18.178;2023-04-06T12:10:27;9.40;;;6.10;;
76336;SDS011;65157;50.082;18.178;2023-04-06T12:12:54;9.60;;;6.20;;
76336;SDS011;65157;50.082;18.178;2023-04-06T12:15:30;9.90;;;6.40;;
76336;SDS011;65157;50.082;18.178;2023-04-06T12:17:59;10.80;;;5.90;;
76336;SDS011;65157;50.082;18.178;2023-04-06T12:20:27;9.60;;;6.00;;
76336;SDS011;65157;50.082;18.178;2023-04-06T12:22:56;10.30;;;5.80;;
76336;SDS011;65157;50.082;18.178;2023-04-06T12:25:23;7.80;;;5.30;;
76336;SDS011;65157;50.082;18.178;2023-04-06T12:27:50;11.50;;;6.60;;
76336;SDS011;65157;50.082;18.178;2023-04-06T12:30:17;10.00;;;6.80;;
76336;SDS011;65157;50.082;18.178;2023-04-06T12:32:44;8.00;;;4.60;;
76336;SDS011;65157;50.082;18.178;2023-04-06T12:35:13;8.30;;;5.50;;
76336;SDS011;65157;50.082;18.178;2023-04-06T12:37:46;7.40;;;5.40;;
76336;SDS011;65157;50.082;18.178;2023-04-06T12:40:13;8.20;;;5.80;;
76336;SDS011;65157;50.082;18.178;2023-04-06T12:42:40;7.80;;;5.40;;
76336;SDS011;65157;50.082;18.178;2023-04-06T12:45:07;8.50;;;5.90;;
76336;SDS011;65157;50.082;18.178;2023-04-06T12:47:35;10.20;;;6.30;;
76336;SDS011;65157;50.082;18.178;2023-04-06T12:50:02;9.70;;;5.40;;
76336;SDS011;65157;50.082;18.178;2023-04-06T12:52:30;7.80;;;5.40;;
76336;SDS011;65157;50.082;18.178;2023-04-06T12:54:56;7.80;;;5.80;;
76336;SDS011;65157;50.082;18.178;2023-04-06T12:57:25;11.50;;;6.00;;
76336;SDS011;65157;50.082;18.178;2023-04-06T13:00:02;9.40;;;5.90;;
76336;SDS011;65157;50.082;18.178;2023-04-06T13:02:41;9.10;;;5.80;;
76336;SDS011;65157;50.082;18.178;2023-04-06T13:05:11;9.10;;;6.00;;
76336;SDS011;65157;50.082;18.178;2023-04-06T13:07:38;11.00;;;6.60;;
76336;SDS011;65157;50.082;18.178;2023-04-06T13:10:10;9.10;;;5.30;;
76336;SDS011;65157;50.082;18.178;2023-04-06T13:12:36;7.40;;;5.10;;
76336;SDS011;65157;50.082;18.178;2023-04-06T13:15:04;9.70;;;6.40;;
76336;SDS011;65157;50.082;18.178;2023-04-06T13:17:37;12.20;;;6.50;;
76336;SDS011;65157;50.082;18.178;2023-04-06T13:20:06;8.70;;;4.70;;
76336;SDS011;65157;50.082;18.178;2023-04-06T13:22:33;10.20;;;5.80;;
76336;SDS011;65157;50.082;18.178;2023-04-06T13:25:00;9.60;;;6.60;;
76336;SDS011;65157;50.082;18.178;2023-04-06T13:27:27;8.20;;;5.30;;
76336;SDS011;65157;50.082;18.178;2023-04-06T13:29:54;8.10;;;5.90;;
76336;SDS011;65157;50.082;18.178;2023-04-06T13:32:25;8.10;;;5.20;;
76336;SDS011;65157;50.082;18.178;2023-04-06T13:34:56;10.30;;;6.10;;
76336;SDS011;65157;50.082;18.178;2023-04-06T13:37:24;8.40;;;5.10;;
76336;SDS011;65157;50.082;18.178;2023-04-06T13:39:52;7.20;;;4.80;;
76336;SDS011;65157;50.082;18.178;2023-04-06T13:42:19;6.70;;;4.90;;
76336;SDS011;65157;50.082;18.178;2023-04-06T13:44:46;6.30;;;4.80;;
76336;SDS011;65157;50.082;18.178;2023-04-06T13:47:21;9.00;;;5.20;;
76336;SDS011;65157;50.082;18.178;2023-04-06T13:49:51;7.70;;;4.50;;
76336;SDS011;65157;50.082;18.178;2023-04-06T13:52:18;6.70;;;4.90;;
76336;SDS011;65157;50.082;18.178;2023-04-06T13:57:18;7.40;;;4.70;;
76336;SDS011;65157;50.082;18.178;2023-04-06T13:59:44;7.70;;;5.30;;
76336;SDS011;65157;50.082;18.178;2023-04-06T14:02:11;9.20;;;5.90;;
76336;SDS011;65157;50.082;18.178;2023-04-06T14:04:38;13.10;;;7.90;;
76336;SDS011;65157;50.082;18.178;2023-04-06T14:09:31;14.80;;;6.10;;
76336;SDS011;65157;50.082;18.178;2023-04-06T14:11:58;12.90;;;7.10;;
76336;SDS011;65157;50.082;18.178;2023-04-06T14:14:28;10.90;;;6.30;;
76336;SDS011;65157;50.082;18.178;2023-04-06T14:16:55;11.00;;;6.90;;
76336;SDS011;65157;50.082;18.178;2023-04-06T14:19:24;17.50;;;10.40;;
76336;SDS011;65157;50.082;18.178;2023-04-06T14:21:51;19.40;;;10.00;;
76336;SDS011;65157;50.082;18.178;2023-04-06T14:24:18;18.90;;;9.00;;
76336;SDS011;65157;50.082;18.178;2023-04-06T14:26:45;15.10;;;7.70;;
76336;SDS011;65157;50.082;18.178;2023-04-06T14:29:12;18.80;;;8.40;;
76336;SDS011;65157;50.082;18.178;2023-04-06T14:31:38;21.30;;;9.50;;
76336;SDS011;65157;50.082;18.178;2023-04-06T14:34:05;16.90;;;8.20;;
76336;SDS011;65157;50.082;18.178;2023-04-06T14:36:32;15.40;;;7.40;;
76336;SDS011;65157;50.082;18.178;2023-04-06T14:38:59;16.80;;;8.20;;
76336;SDS011;65157;50.082;18.178;2023-04-06T14:41:28;11.80;;;6.60;;
76336;SDS011;65157;50.082;18.178;2023-04-06T14:43:55;18.00;;;7.30;;